createdAt,value
2023-05-05T00:00:11.871Z,704.00
2023-05-05T00:01:11.879Z,708.00
2023-05-05T00:02:12.997Z,710.00
2023-05-05T00:03:13.208Z,714.00
2023-05-05T00:04:12.206Z,716.00
2023-05-05T00:05:13.170Z,717.00
2023-05-05T00:06:13.086Z,716.00
2023-05-05T00:07:12.203Z,714.00
2023-05-05T00:08:13.248Z,712.00
2023-05-05T00:09:12.224Z,712.00
2023-05-05T00:10:13.233Z,712.00
2023-05-05T00:11:13.389Z,713.00
2023-05-05T00:12:12.296Z,711.00
2023-05-05T00:13:13.574Z,710.00
2023-05-05T00:14:12.521Z,710.00
2023-05-05T00:15:12.494Z,706.00
2023-05-05T00:16:12.521Z,706.00
2023-05-05T00:17:12.601Z,705.00
2023-05-05T00:18:12.554Z,706.00
2023-05-05T00:19:13.637Z,705.00
2023-05-05T00:20:13.619Z,702.00
2023-05-05T00:21:12.727Z,701.00
2023-05-05T00:22:13.687Z,698.00
2023-05-05T00:23:12.760Z,699.00
2023-05-05T00:24:13.838Z,700.00
2023-05-05T00:25:12.750Z,700.00
2023-05-05T00:26:13.835Z,699.00
2023-05-05T00:27:13.838Z,699.00
2023-05-05T00:28:12.978Z,698.00
2023-05-05T00:29:12.960Z,699.00
2023-05-05T00:30:14.027Z,696.00
2023-05-05T00:31:14.056Z,693.00
2023-05-05T00:32:13.070Z,693.00
2023-05-05T00:33:13.175Z,696.00
2023-05-05T00:34:14.264Z,693.00
2023-05-05T00:35:13.229Z,694.00
2023-05-05T00:36:13.300Z,694.00
2023-05-05T00:37:13.351Z,694.00
2023-05-05T00:38:13.260Z,693.00
2023-05-05T00:39:14.320Z,692.00
2023-05-05T00:40:14.378Z,688.00
2023-05-05T00:41:14.701Z,687.00
2023-05-05T00:42:13.500Z,689.00
2023-05-05T00:43:13.532Z,689.00
2023-05-05T00:44:14.681Z,690.00
2023-05-05T00:45:13.539Z,691.00
2023-05-05T00:46:13.702Z,693.00
2023-05-05T00:47:14.613Z,696.00
2023-05-05T00:48:13.620Z,697.00
2023-05-05T00:49:13.710Z,696.00
2023-05-05T00:50:14.726Z,696.00
2023-05-05T00:51:13.790Z,698.00
2023-05-05T00:52:13.868Z,701.00
2023-05-05T00:53:14.903Z,702.00
2023-05-05T00:54:13.882Z,700.00
2023-05-05T00:55:13.905Z,700.00
2023-05-05T00:56:14.994Z,699.00
2023-05-05T00:57:15.016Z,699.00
2023-05-05T00:58:14.124Z,701.00
2023-05-05T00:59:15.121Z,701.00
2023-05-05T01:00:14.104Z,701.00
2023-05-05T01:01:15.227Z,702.00
2023-05-05T01:02:14.220Z,702.00
2023-05-05T01:03:14.363Z,701.00
2023-05-05T01:04:14.401Z,699.00
2023-05-05T01:05:14.365Z,698.00
2023-05-05T01:06:14.335Z,697.00
2023-05-05T01:07:15.552Z,697.00
2023-05-05T01:08:14.529Z,695.00
2023-05-05T01:09:14.610Z,694.00
2023-05-05T01:10:20.421Z,694.00
2023-05-05T01:11:15.513Z,698.00
2023-05-05T01:12:14.517Z,696.00
2023-05-05T01:13:15.492Z,696.00
2023-05-05T01:14:15.567Z,696.00
2023-05-05T01:15:15.500Z,696.00
2023-05-05T01:16:14.501Z,693.00
2023-05-05T01:17:14.489Z,692.00
2023-05-05T01:18:14.522Z,690.00
2023-05-05T01:19:14.462Z,689.00
2023-05-05T01:20:15.437Z,690.00
2023-05-05T01:21:15.517Z,688.00
2023-05-05T01:22:15.546Z,688.00
2023-05-05T01:23:14.473Z,686.00
2023-05-05T01:24:15.562Z,685.00
2023-05-05T01:25:14.588Z,685.00
2023-05-05T01:26:14.592Z,684.00
2023-05-05T01:27:14.701Z,684.00
2023-05-05T01:28:14.790Z,684.00
2023-05-05T01:29:14.860Z,683.00
2023-05-05T01:30:14.809Z,682.00
2023-05-05T01:31:14.880Z,686.00
2023-05-05T01:32:14.992Z,687.00
2023-05-05T01:33:14.987Z,688.00
2023-05-05T01:34:16.117Z,689.00
2023-05-05T01:35:15.026Z,689.00
2023-05-05T01:36:15.090Z,695.00
2023-05-05T01:37:16.048Z,694.00
2023-05-05T01:38:15.196Z,690.00
2023-05-05T01:39:15.205Z,686.00
2023-05-05T01:40:15.196Z,684.00
2023-05-05T01:41:15.296Z,683.00
2023-05-05T01:42:15.318Z,683.00
2023-05-05T01:43:15.309Z,681.00
2023-05-05T01:44:15.338Z,683.00
2023-05-05T01:45:15.410Z,683.00
2023-05-05T01:46:16.657Z,683.00
2023-05-05T01:47:15.564Z,684.00
2023-05-05T01:48:15.644Z,685.00
2023-05-05T01:49:15.656Z,687.00
2023-05-05T01:50:16.654Z,689.00
2023-05-05T01:51:15.633Z,691.00
2023-05-05T01:52:15.766Z,689.00
2023-05-05T01:53:16.856Z,686.00
2023-05-05T01:54:15.788Z,684.00
2023-05-05T01:55:16.924Z,684.00
2023-05-05T01:56:15.888Z,684.00
2023-05-05T01:57:17.021Z,682.00
2023-05-05T01:58:17.052Z,683.00
2023-05-05T01:59:16.095Z,682.00
2023-05-05T02:00:17.139Z,683.00
2023-05-05T02:01:16.181Z,682.00
2023-05-05T02:02:16.269Z,681.00
2023-05-05T02:03:16.393Z,680.00
2023-05-05T02:04:16.291Z,680.00
2023-05-05T02:05:17.418Z,680.00
2023-05-05T02:06:16.424Z,679.00
2023-05-05T02:07:16.483Z,679.00
2023-05-05T02:08:16.615Z,675.00
2023-05-05T02:09:16.622Z,676.00
2023-05-05T02:10:16.630Z,676.00
2023-05-05T02:11:17.637Z,675.00
2023-05-05T02:12:17.634Z,673.00
2023-05-05T02:13:16.946Z,673.00
2023-05-05T02:14:16.749Z,673.00
2023-05-05T02:15:17.836Z,676.00
2023-05-05T02:16:17.033Z,675.00
2023-05-05T02:17:17.954Z,675.00
2023-05-05T02:18:17.002Z,677.00
2023-05-05T02:19:18.056Z,676.00
2023-05-05T02:20:17.046Z,673.00
2023-05-05T02:21:17.127Z,671.00
2023-05-05T02:22:17.210Z,671.00
2023-05-05T02:23:17.173Z,671.00
2023-05-05T02:24:18.246Z,671.00
2023-05-05T02:25:18.343Z,669.00
2023-05-05T02:26:18.355Z,670.00
2023-05-05T02:27:17.412Z,668.00
2023-05-05T02:28:17.506Z,668.00
2023-05-05T02:29:18.499Z,671.00
2023-05-05T02:30:18.504Z,672.00
2023-05-05T02:31:18.701Z,674.00
2023-05-05T02:32:17.652Z,673.00
2023-05-05T02:33:18.657Z,671.00
2023-05-05T02:34:17.744Z,671.00
2023-05-05T02:35:17.827Z,670.00
2023-05-05T02:36:18.800Z,670.00
2023-05-05T02:37:17.938Z,669.00
2023-05-05T02:38:18.915Z,670.00
2023-05-05T02:39:19.001Z,669.00
2023-05-05T02:40:19.067Z,670.00
2023-05-05T02:41:19.110Z,672.00
2023-05-05T02:42:18.155Z,672.00
2023-05-05T02:43:19.180Z,672.00
2023-05-05T02:44:19.223Z,669.00
2023-05-05T02:45:18.418Z,669.00
2023-05-05T02:46:18.422Z,672.00
2023-05-05T02:47:19.386Z,671.00
2023-05-05T02:48:19.544Z,672.00
2023-05-05T02:49:18.561Z,671.00
2023-05-05T02:50:18.555Z,671.00
2023-05-05T02:51:19.635Z,671.00
2023-05-05T02:52:18.818Z,672.00
2023-05-05T02:53:18.691Z,671.00
2023-05-05T02:54:19.808Z,670.00
2023-05-05T02:55:18.899Z,671.00
2023-05-05T02:56:18.852Z,672.00
2023-05-05T02:57:18.950Z,673.00
2023-05-05T02:58:20.055Z,673.00
2023-05-05T02:59:19.128Z,672.00
2023-05-05T03:00:19.206Z,670.00
2023-05-05T03:01:19.250Z,672.00
2023-05-05T03:02:19.272Z,674.00
2023-05-05T03:03:20.346Z,673.00
2023-05-05T03:04:19.412Z,671.00
2023-05-05T03:05:19.384Z,672.00
2023-05-05T03:06:21.142Z,668.00
2023-05-05T03:07:19.531Z,665.00
2023-05-05T03:08:19.669Z,661.00
2023-05-05T03:09:19.704Z,656.00
2023-05-05T03:10:20.706Z,655.00
2023-05-05T03:11:20.816Z,655.00
2023-05-05T03:12:19.819Z,657.00
2023-05-05T03:13:20.921Z,657.00
2023-05-05T03:14:19.954Z,655.00
2023-05-05T03:15:20.077Z,655.00
2023-05-05T03:16:21.208Z,655.00
2023-05-05T03:17:20.143Z,655.00
2023-05-05T03:18:21.117Z,657.00
2023-05-05T03:19:20.288Z,657.00
2023-05-05T03:20:21.253Z,656.00
2023-05-05T03:21:20.256Z,656.00
2023-05-05T03:22:20.433Z,655.00
2023-05-05T03:23:20.394Z,658.00
2023-05-05T03:24:20.543Z,656.00
2023-05-05T03:25:21.639Z,654.00
2023-05-05T03:26:20.600Z,653.00
2023-05-05T03:27:20.691Z,651.00
2023-05-05T03:28:20.761Z,654.00
2023-05-05T03:29:20.720Z,653.00
2023-05-05T03:30:21.790Z,655.00
2023-05-05T03:31:21.871Z,656.00
2023-05-05T03:32:20.934Z,655.00
2023-05-05T03:33:21.971Z,653.00
2023-05-05T03:34:21.063Z,651.00
2023-05-05T03:35:22.197Z,650.00
2023-05-05T03:36:22.222Z,652.00
2023-05-05T03:37:21.186Z,654.00
2023-05-05T03:38:22.326Z,651.00
2023-05-05T03:39:22.354Z,654.00
2023-05-05T03:40:32.671Z,654.00
2023-05-05T03:41:22.367Z,654.00
2023-05-05T03:42:22.357Z,651.00
2023-05-05T03:43:22.409Z,652.00
2023-05-05T03:44:21.364Z,651.00
2023-05-05T03:45:21.475Z,650.00
2023-05-05T03:46:21.361Z,652.00
2023-05-05T03:47:22.425Z,649.00
2023-05-05T03:48:21.328Z,648.00
2023-05-05T03:49:21.403Z,646.00
2023-05-05T03:50:21.338Z,646.00
2023-05-05T03:51:21.295Z,646.00
2023-05-05T03:52:21.335Z,647.00
2023-05-05T03:53:21.386Z,647.00
2023-05-05T03:54:21.263Z,653.00
2023-05-05T03:55:22.297Z,651.00
2023-05-05T03:56:21.269Z,648.00
2023-05-05T03:57:22.272Z,647.00
2023-05-05T03:58:22.283Z,647.00
2023-05-05T03:59:21.222Z,649.00
2023-05-05T04:00:22.256Z,649.00
2023-05-05T04:01:21.248Z,651.00
2023-05-05T04:02:21.266Z,652.00
2023-05-05T04:03:22.522Z,652.00
2023-05-05T04:04:22.458Z,653.00
2023-05-05T04:05:22.421Z,652.00
2023-05-05T04:06:21.492Z,651.00
2023-05-05T04:07:22.593Z,654.00
2023-05-05T04:08:22.630Z,654.00
2023-05-05T04:09:21.613Z,655.00
2023-05-05T04:10:21.776Z,653.00
2023-05-05T04:11:21.760Z,654.00
2023-05-05T04:12:21.801Z,653.00
2023-05-05T04:13:22.904Z,653.00
2023-05-05T04:14:21.919Z,655.00
2023-05-05T04:15:21.935Z,656.00
2023-05-05T04:16:23.236Z,656.00
2023-05-05T04:17:22.155Z,655.00
2023-05-05T04:18:23.178Z,656.00
2023-05-05T04:19:22.297Z,654.00
2023-05-05T04:20:22.349Z,652.00
2023-05-05T04:21:22.398Z,653.00
2023-05-05T04:22:22.423Z,655.00
2023-05-05T04:23:23.490Z,656.00
2023-05-05T04:24:22.544Z,655.00
2023-05-05T04:25:22.605Z,653.00
2023-05-05T04:26:22.700Z,653.00
2023-05-05T04:27:23.711Z,654.00
2023-05-05T04:28:22.719Z,651.00
2023-05-05T04:29:22.826Z,651.00
2023-05-05T04:30:22.893Z,650.00
2023-05-05T04:31:22.919Z,650.00
2023-05-05T04:32:24.041Z,649.00
2023-05-05T04:33:24.041Z,654.00
2023-05-05T04:34:24.076Z,654.00
2023-05-05T04:35:24.159Z,654.00
2023-05-05T04:36:23.251Z,653.00
2023-05-05T04:37:23.284Z,652.00
2023-05-05T04:38:24.374Z,653.00
2023-05-05T04:39:23.411Z,653.00
2023-05-05T04:40:23.555Z,653.00
2023-05-05T04:41:23.625Z,653.00
2023-05-05T04:42:24.601Z,653.00
2023-05-05T04:43:23.584Z,652.00
2023-05-05T04:44:24.706Z,651.00
2023-05-05T04:45:23.777Z,653.00
2023-05-05T04:46:24.933Z,649.00
2023-05-05T04:47:23.877Z,651.00
2023-05-05T04:48:23.899Z,649.00
2023-05-05T04:49:24.016Z,648.00
2023-05-05T04:50:24.148Z,647.00
2023-05-05T04:51:24.142Z,648.00
2023-05-05T04:52:24.227Z,645.00
2023-05-05T04:53:25.212Z,646.00
2023-05-05T04:54:25.276Z,646.00
2023-05-05T04:55:25.313Z,644.00
2023-05-05T04:56:25.480Z,642.00
2023-05-05T04:57:24.488Z,640.00
2023-05-05T04:58:24.468Z,639.00
2023-05-05T04:59:25.616Z,640.00
2023-05-05T05:00:24.648Z,638.00
2023-05-05T05:01:24.682Z,635.00
2023-05-05T05:02:24.863Z,633.00
2023-05-05T05:03:26.000Z,633.00
2023-05-05T05:04:25.910Z,635.00
2023-05-05T05:05:24.971Z,635.00
2023-05-05T05:06:25.147Z,637.00
2023-05-05T05:07:26.112Z,634.00
2023-05-05T05:08:25.194Z,637.00
2023-05-05T05:09:25.192Z,636.00
2023-05-05T05:10:26.240Z,638.00
2023-05-05T05:11:25.393Z,643.00
2023-05-05T05:12:25.406Z,642.00
2023-05-05T05:13:25.580Z,641.00
2023-05-05T05:14:25.464Z,642.00
2023-05-05T05:15:25.540Z,644.00
2023-05-05T05:16:25.671Z,648.00
2023-05-05T05:17:26.598Z,648.00
2023-05-05T05:18:25.639Z,647.00
2023-05-05T05:19:25.770Z,644.00
2023-05-05T05:20:25.790Z,642.00
2023-05-05T05:21:26.949Z,644.00
2023-05-05T05:22:26.905Z,643.00
2023-05-05T05:23:26.936Z,643.00
2023-05-05T05:24:25.953Z,645.00
2023-05-05T05:25:27.021Z,647.00
2023-05-05T05:26:26.189Z,650.00
2023-05-05T05:27:26.100Z,650.00
2023-05-05T05:28:26.141Z,651.00
2023-05-05T05:29:26.287Z,657.00
2023-05-05T05:30:26.258Z,656.00
2023-05-05T05:31:26.433Z,656.00
2023-05-05T05:32:26.350Z,661.00
2023-05-05T05:33:28.293Z,670.00
2023-05-05T05:34:26.908Z,678.00
2023-05-05T05:35:26.578Z,684.00
2023-05-05T05:36:26.628Z,720.00
2023-05-05T05:37:27.669Z,741.00
2023-05-05T05:38:26.649Z,755.00
2023-05-05T05:39:26.705Z,781.00
2023-05-05T05:40:26.704Z,794.00
2023-05-05T05:41:26.976Z,802.00
2023-05-05T05:42:27.797Z,816.00
2023-05-05T05:43:28.210Z,827.00
2023-05-05T05:44:28.748Z,839.00
2023-05-05T05:45:27.351Z,850.00
2023-05-05T05:46:26.888Z,905.00
2023-05-05T05:47:26.753Z,920.00
2023-05-05T05:48:26.794Z,940.00
2023-05-05T05:49:26.954Z,985.00
2023-05-05T05:50:28.035Z,1029.00
2023-05-05T05:51:26.986Z,1052.00
2023-05-05T05:52:33.811Z,1069.00
2023-05-05T05:53:26.776Z,1092.00
2023-05-05T05:54:26.810Z,1122.00
2023-05-05T05:55:26.747Z,1176.00
2023-05-05T05:56:26.768Z,1194.00
2023-05-05T05:57:27.864Z,1217.00
2023-05-05T05:58:26.734Z,1244.00
2023-05-05T05:59:26.814Z,1335.00
2023-05-05T06:00:27.790Z,1360.00
2023-05-05T06:01:26.954Z,1392.00
2023-05-05T06:02:27.868Z,1426.00
2023-05-05T06:03:26.996Z,1480.00
2023-05-05T06:04:26.838Z,1591.00
2023-05-05T06:05:26.704Z,1620.00
2023-05-05T06:06:27.748Z,1634.00
2023-05-05T06:07:26.831Z,1693.00
2023-05-05T06:08:26.766Z,1743.00
2023-05-05T06:09:26.693Z,1765.00
2023-05-05T06:10:28.366Z,1788.00
2023-05-05T06:11:27.668Z,1807.00
2023-05-05T06:12:27.639Z,1865.00
2023-05-05T06:13:26.665Z,1905.00
2023-05-05T06:14:26.635Z,1936.00
2023-05-05T06:15:26.618Z,2031.00
2023-05-05T06:16:26.732Z,2040.00
2023-05-05T06:17:27.650Z,2053.00
2023-05-05T06:18:26.804Z,2066.00
2023-05-05T06:19:26.628Z,2089.00
2023-05-05T06:20:26.646Z,2110.00
2023-05-05T06:21:26.617Z,2150.00
2023-05-05T06:22:26.599Z,2162.00
2023-05-05T06:23:27.607Z,2184.00
2023-05-05T06:24:27.676Z,2203.00
2023-05-05T06:25:26.551Z,2223.00
2023-05-05T06:26:26.663Z,2268.00
2023-05-05T06:27:26.763Z,2288.00
2023-05-05T06:28:27.780Z,2304.00
2023-05-05T06:29:26.883Z,2321.00
2023-05-05T06:30:26.908Z,2342.00
2023-05-05T06:31:27.102Z,2378.00
2023-05-05T06:32:27.034Z,2404.00
2023-05-05T06:33:27.993Z,2434.00
2023-05-05T06:34:28.118Z,2467.00
2023-05-05T06:35:27.107Z,2511.00
2023-05-05T06:36:27.246Z,2537.00
2023-05-05T06:37:27.246Z,2567.00
2023-05-05T06:38:27.302Z,2585.00
2023-05-05T06:39:27.336Z,2596.00
2023-05-05T06:40:27.374Z,2605.00
2023-05-05T06:41:28.460Z,2600.00
2023-05-05T06:42:27.436Z,2591.00
2023-05-05T06:43:27.494Z,2593.00
2023-05-05T06:44:27.537Z,2597.00
2023-05-05T06:45:28.523Z,2597.00
2023-05-05T06:46:27.554Z,2595.00
2023-05-05T06:47:28.517Z,2600.00
2023-05-05T06:48:28.848Z,2598.00
2023-05-05T06:49:27.513Z,2600.00
2023-05-05T06:50:27.528Z,2595.00
2023-05-05T06:51:28.510Z,2595.00
2023-05-05T06:52:28.046Z,2599.00
2023-05-05T06:53:28.547Z,2018.00
2023-05-05T06:54:27.595Z,1867.00
2023-05-05T06:55:27.678Z,2061.00
2023-05-05T06:56:27.768Z,2141.00
2023-05-05T06:57:27.968Z,2120.00
2023-05-05T06:58:28.643Z,2105.00
2023-05-05T06:59:27.784Z,2110.00
2023-05-05T07:00:27.710Z,2110.00
2023-05-05T07:01:27.686Z,2113.00
2023-05-05T07:02:27.733Z,2114.00
2023-05-05T07:03:28.691Z,2112.00
2023-05-05T07:04:28.709Z,2100.00
2023-05-05T07:05:27.703Z,2092.00
2023-05-05T07:06:28.701Z,2111.00
2023-05-05T07:07:27.745Z,2106.00
2023-05-05T07:08:27.702Z,2086.00
2023-05-05T07:09:27.703Z,2079.00
2023-05-05T07:10:27.727Z,2084.00
2023-05-05T07:11:27.724Z,2080.00
2023-05-05T07:12:28.961Z,2082.00
2023-05-05T07:13:28.773Z,2080.00
2023-05-05T07:14:28.875Z,2046.00
2023-05-05T07:15:29.650Z,2035.00
2023-05-05T07:16:27.812Z,2030.00
2023-05-05T07:17:27.775Z,2018.00
2023-05-05T07:18:28.787Z,1987.00
2023-05-05T07:19:27.781Z,1973.00
2023-05-05T07:20:27.843Z,1966.00
2023-05-05T07:21:28.857Z,1969.00
2023-05-05T07:22:27.910Z,1962.00
2023-05-05T07:23:28.974Z,1946.00
2023-05-05T07:24:29.023Z,1898.00
2023-05-05T07:25:28.087Z,1896.00
2023-05-05T07:26:29.192Z,1874.00
2023-05-05T07:27:28.266Z,1856.00
2023-05-05T07:28:28.523Z,1850.00
2023-05-05T07:29:28.353Z,1844.00
2023-05-05T07:30:28.408Z,1845.00
2023-05-05T07:31:28.553Z,1843.00
2023-05-05T07:32:28.488Z,1840.00
2023-05-05T07:33:28.486Z,1833.00
2023-05-05T07:34:29.592Z,1830.00
2023-05-05T07:35:28.605Z,1821.00
2023-05-05T07:36:29.644Z,1824.00
2023-05-05T07:37:28.737Z,1851.00
2023-05-05T07:38:28.733Z,1880.00
2023-05-05T07:39:28.753Z,1883.00
2023-05-05T07:40:29.895Z,1901.00
2023-05-05T07:41:29.792Z,1921.00
2023-05-05T07:42:29.793Z,1960.00
2023-05-05T07:43:28.823Z,2003.00
2023-05-05T07:44:28.934Z,2018.00
2023-05-05T07:45:29.949Z,2029.00
2023-05-05T07:46:29.030Z,2035.00
2023-05-05T07:47:29.135Z,2060.00
2023-05-05T07:48:29.986Z,2111.00
2023-05-05T07:49:29.948Z,2123.00
2023-05-05T07:50:30.046Z,2128.00
2023-05-05T07:51:29.029Z,2118.00
2023-05-05T07:52:43.602Z,2105.00
2023-05-05T07:53:30.031Z,2083.00
2023-05-05T07:54:30.048Z,2076.00
2023-05-05T07:55:29.124Z,2065.00
2023-05-05T07:56:30.150Z,2060.00
2023-05-05T07:57:29.184Z,2052.00
2023-05-05T07:58:29.270Z,2050.00
2023-05-05T07:59:30.219Z,2041.00
2023-05-05T08:00:29.420Z,2035.00
2023-05-05T08:01:29.294Z,2029.00
2023-05-05T08:02:30.317Z,2017.00
2023-05-05T08:03:29.401Z,2017.00
2023-05-05T08:04:29.342Z,2013.00
2023-05-05T08:05:29.220Z,2009.00
2023-05-05T08:06:30.228Z,2009.00
2023-05-05T08:07:29.328Z,2002.00
2023-05-05T08:08:29.371Z,2000.00
2023-05-05T08:09:29.365Z,2001.00
2023-05-05T08:10:29.348Z,2003.00
2023-05-05T08:11:30.362Z,2004.00
2023-05-05T08:12:30.396Z,1996.00
2023-05-05T08:13:29.380Z,1992.00
2023-05-05T08:14:30.526Z,1989.00
2023-05-05T08:15:29.463Z,1982.00
2023-05-05T08:16:30.609Z,1980.00
2023-05-05T08:17:30.510Z,1977.00
2023-05-05T08:18:30.516Z,1974.00
2023-05-05T08:19:30.575Z,1968.00
2023-05-05T08:20:29.629Z,1962.00
2023-05-05T08:21:29.686Z,1961.00
2023-05-05T08:22:29.636Z,1959.00
2023-05-05T08:23:30.739Z,1957.00
2023-05-05T08:24:30.699Z,1953.00
2023-05-05T08:25:30.813Z,1952.00
2023-05-05T08:26:29.759Z,1955.00
2023-05-05T08:27:30.778Z,1952.00
2023-05-05T08:28:30.814Z,1938.00
2023-05-05T08:29:30.907Z,1935.00
2023-05-05T08:30:30.946Z,1932.00
2023-05-05T08:31:30.001Z,1931.00
2023-05-05T08:32:30.211Z,1927.00
2023-05-05T08:33:30.013Z,1925.00
2023-05-05T08:34:30.084Z,1924.00
2023-05-05T08:35:31.055Z,1916.00
2023-05-05T08:36:31.134Z,1912.00
2023-05-05T08:37:30.168Z,1911.00
2023-05-05T08:38:31.233Z,1906.00
2023-05-05T08:39:30.202Z,1899.00
2023-05-05T08:40:30.222Z,1893.00
2023-05-05T08:41:30.287Z,1884.00
2023-05-05T08:42:36.937Z,1882.00
2023-05-05T08:43:31.603Z,1877.00
2023-05-05T08:44:30.353Z,1871.00
2023-05-05T08:45:31.215Z,1860.00
2023-05-05T08:46:31.285Z,1853.00
2023-05-05T08:47:30.366Z,1831.00
2023-05-05T08:48:30.458Z,1775.00
2023-05-05T08:49:31.273Z,1666.00
2023-05-05T08:50:30.268Z,1449.00
2023-05-05T08:51:30.273Z,1514.00
2023-05-05T08:52:30.245Z,1547.00
2023-05-05T08:53:30.273Z,1439.00
2023-05-05T08:54:30.157Z,1383.00
2023-05-05T08:55:30.149Z,1380.00
2023-05-05T08:56:31.235Z,1334.00
2023-05-05T08:57:31.148Z,1346.00
2023-05-05T08:58:31.506Z,1325.00
2023-05-05T08:59:30.196Z,1309.00
2023-05-05T09:00:31.115Z,1300.00
2023-05-05T09:01:30.230Z,1293.00
2023-05-05T09:02:30.222Z,1288.00
2023-05-05T09:03:30.196Z,1277.00
2023-05-05T09:04:30.224Z,1267.00
2023-05-05T09:05:30.102Z,1257.00
2023-05-05T09:06:30.156Z,1250.00
2023-05-05T09:07:30.077Z,1247.00
2023-05-05T09:08:30.176Z,1243.00
2023-05-05T09:09:31.144Z,1238.00
2023-05-05T09:10:30.037Z,1231.00
2023-05-05T09:11:30.099Z,1226.00
2023-05-05T09:12:30.221Z,1219.00
2023-05-05T09:13:30.150Z,1216.00
2023-05-05T09:14:30.093Z,1211.00
2023-05-05T09:15:30.055Z,1204.00
2023-05-05T09:16:30.036Z,1198.00
2023-05-05T09:17:31.029Z,1195.00
2023-05-05T09:18:31.087Z,1187.00
2023-05-05T09:19:30.065Z,1184.00
2023-05-05T09:20:30.239Z,1184.00
2023-05-05T09:21:30.056Z,1178.00
2023-05-05T09:22:29.964Z,1175.00
2023-05-05T09:23:31.034Z,1170.00
2023-05-05T09:24:29.991Z,1166.00
2023-05-05T09:25:30.007Z,1164.00
2023-05-05T09:26:29.944Z,1164.00
2023-05-05T09:27:29.944Z,1159.00
2023-05-05T09:28:31.059Z,1151.00
2023-05-05T09:29:29.926Z,1147.00
2023-05-05T09:30:30.930Z,1144.00
2023-05-05T09:31:29.992Z,1141.00
2023-05-05T09:32:30.951Z,1138.00
2023-05-05T09:33:29.989Z,1137.00
2023-05-05T09:34:29.944Z,1132.00
2023-05-05T09:35:29.978Z,1128.00
2023-05-05T09:36:29.982Z,1122.00
2023-05-05T09:37:29.890Z,1118.00
2023-05-05T09:38:30.879Z,1121.00
2023-05-05T09:39:30.953Z,1120.00
2023-05-05T09:40:30.858Z,1119.00
2023-05-05T09:41:29.899Z,1120.00
2023-05-05T09:42:29.852Z,1122.00
2023-05-05T09:43:29.853Z,1127.00
2023-05-05T09:44:30.816Z,1126.00
2023-05-05T09:45:29.891Z,1124.00
2023-05-05T09:46:29.941Z,1122.00
2023-05-05T09:47:30.253Z,1118.00
2023-05-05T09:48:30.142Z,1114.00
2023-05-05T09:49:29.815Z,1114.00
2023-05-05T09:50:31.207Z,1114.00
2023-05-05T09:51:30.772Z,1116.00
2023-05-05T09:52:30.846Z,1154.00
2023-05-05T09:53:31.105Z,1223.00
2023-05-05T09:54:29.857Z,1260.00
2023-05-05T09:55:29.886Z,1321.00
2023-05-05T09:56:29.997Z,1318.00
2023-05-05T09:57:30.018Z,1294.00
2023-05-05T09:58:31.108Z,1205.00
2023-05-05T09:59:30.041Z,1235.00
2023-05-05T10:00:30.067Z,1147.00
2023-05-05T10:01:30.114Z,1121.00
2023-05-05T10:02:30.146Z,1097.00
2023-05-05T10:03:30.088Z,1103.00
2023-05-05T10:04:30.231Z,1090.00
2023-05-05T10:05:30.139Z,994.00
2023-05-05T10:06:30.151Z,900.00
2023-05-05T10:07:31.240Z,986.00
2023-05-05T10:08:30.368Z,952.00
2023-05-05T10:09:31.266Z,915.00
2023-05-05T10:10:31.270Z,930.00
2023-05-05T10:11:30.288Z,1008.00
2023-05-05T10:12:30.413Z,1060.00
2023-05-05T10:13:30.384Z,1056.00
2023-05-05T10:14:31.408Z,1093.00
2023-05-05T10:15:30.420Z,1207.00
2023-05-05T10:16:31.515Z,1172.00
2023-05-05T10:17:31.545Z,1163.00
2023-05-05T10:18:31.471Z,1171.00
2023-05-05T10:19:31.509Z,1191.00
2023-05-05T10:20:30.469Z,1254.00
2023-05-05T10:21:31.514Z,1256.00
2023-05-05T10:22:30.511Z,1268.00
2023-05-05T10:23:30.459Z,1287.00
2023-05-05T10:24:30.541Z,1331.00
2023-05-05T10:25:30.445Z,1414.00
2023-05-05T10:26:30.475Z,1414.00
2023-05-05T10:27:30.456Z,1415.00
2023-05-05T10:28:31.485Z,1414.00
2023-05-05T10:29:30.510Z,1469.00
2023-05-05T10:30:30.515Z,1451.00
2023-05-05T10:31:30.517Z,1494.00
2023-05-05T10:33:32.221Z,1546.00
2023-05-05T10:34:30.462Z,1579.00
2023-05-05T10:35:30.408Z,1567.00
2023-05-05T10:36:31.407Z,1531.00
2023-05-05T10:37:30.418Z,1512.00
2023-05-05T10:38:31.567Z,1510.00
2023-05-05T10:39:30.475Z,1502.00
2023-05-05T10:40:30.545Z,1361.00
2023-05-05T10:41:31.462Z,1339.00
2023-05-05T10:42:30.462Z,1192.00
2023-05-05T10:43:30.375Z,1387.00
2023-05-05T10:44:31.752Z,1424.00
2023-05-05T10:45:30.577Z,1407.00
2023-05-05T10:46:30.404Z,1388.00
2023-05-05T10:47:30.477Z,1371.00
2023-05-05T10:48:30.339Z,1369.00
2023-05-05T10:49:31.437Z,1371.00
2023-05-05T10:50:30.390Z,1367.00
2023-05-05T10:51:39.266Z,1366.00
2023-05-05T10:52:31.358Z,1369.00
2023-05-05T10:53:31.288Z,1373.00
2023-05-05T10:54:30.393Z,1373.00
2023-05-05T10:55:30.310Z,1371.00
2023-05-05T10:56:30.315Z,1368.00
2023-05-05T10:57:30.308Z,1364.00
2023-05-05T10:58:31.370Z,1364.00
2023-05-05T10:59:30.241Z,1364.00
2023-05-05T11:00:31.219Z,1364.00
2023-05-05T11:01:31.294Z,1365.00
2023-05-05T11:02:30.312Z,1367.00
2023-05-05T11:03:30.309Z,1363.00
2023-05-05T11:04:30.271Z,1359.00
2023-05-05T11:05:31.265Z,1355.00
2023-05-05T11:06:30.243Z,1348.00
2023-05-05T11:07:31.227Z,1346.00
2023-05-05T11:08:30.167Z,1347.00
2023-05-05T11:09:31.236Z,1347.00
2023-05-05T11:10:30.220Z,1339.00
2023-05-05T11:11:31.217Z,1337.00
2023-05-05T11:12:30.484Z,1331.00
2023-05-05T11:13:31.212Z,1330.00
2023-05-05T11:14:30.272Z,1331.00
2023-05-05T11:15:31.431Z,1330.00
2023-05-05T11:16:30.458Z,1328.00
2023-05-05T11:17:30.390Z,1324.00
2023-05-05T11:18:31.410Z,1326.00
2023-05-05T11:19:30.463Z,1327.00
2023-05-05T11:20:31.579Z,1317.00
2023-05-05T11:21:31.546Z,1313.00
2023-05-05T11:22:30.632Z,1303.00
2023-05-05T11:23:30.674Z,1299.00
2023-05-05T11:24:31.743Z,1296.00
2023-05-05T11:25:31.747Z,1290.00
2023-05-05T11:26:30.728Z,1283.00
2023-05-05T11:27:30.804Z,1280.00
2023-05-05T11:28:30.985Z,1272.00
2023-05-05T11:29:30.848Z,1267.00
2023-05-05T11:30:30.907Z,1262.00
2023-05-05T11:31:32.039Z,1262.00
2023-05-05T11:32:32.017Z,1261.00
2023-05-05T11:33:31.166Z,1257.00
2023-05-05T11:34:31.101Z,1254.00
2023-05-05T11:35:31.165Z,1252.00
2023-05-05T11:36:32.214Z,1245.00
2023-05-05T11:37:31.312Z,1238.00
2023-05-05T11:38:31.341Z,1231.00
2023-05-05T11:39:31.709Z,1227.00
2023-05-05T11:40:32.446Z,1219.00
2023-05-05T11:41:32.558Z,1208.00
2023-05-05T11:42:32.568Z,1196.00
2023-05-05T11:43:31.591Z,1192.00
2023-05-05T11:44:31.754Z,1187.00
2023-05-05T11:45:31.772Z,1182.00
2023-05-05T11:46:31.727Z,1182.00
2023-05-05T11:47:31.840Z,1182.00
2023-05-05T11:48:32.822Z,1178.00
2023-05-05T11:49:31.859Z,1173.00
2023-05-05T11:50:31.927Z,1169.00
2023-05-05T11:51:31.940Z,1168.00
2023-05-05T11:52:32.987Z,1163.00
2023-05-05T11:53:33.036Z,1155.00
2023-05-05T11:54:32.088Z,1147.00
2023-05-05T11:55:32.210Z,1144.00
2023-05-05T11:56:32.151Z,1138.00
2023-05-05T11:57:33.253Z,1137.00
2023-05-05T11:58:33.237Z,1136.00
2023-05-05T11:59:32.279Z,1133.00
2023-05-05T12:00:32.484Z,1123.00
2023-05-05T12:01:32.440Z,1109.00
2023-05-05T12:02:32.556Z,1098.00
2023-05-05T12:03:32.626Z,1096.00
2023-05-05T12:04:32.688Z,1090.00
2023-05-05T12:05:36.322Z,1083.00
2023-05-05T12:06:32.592Z,1080.00
2023-05-05T12:07:32.544Z,1080.00
2023-05-05T12:08:33.602Z,1082.00
2023-05-05T12:09:33.605Z,1081.00
2023-05-05T12:10:32.493Z,1082.00
2023-05-05T12:11:33.578Z,1084.00
2023-05-05T12:12:32.519Z,1086.00
2023-05-05T12:13:32.525Z,1087.00
2023-05-05T12:14:32.452Z,1094.00
2023-05-05T12:15:33.459Z,1104.00
2023-05-05T12:16:32.605Z,1109.00
2023-05-05T12:17:33.531Z,1117.00